createdAt,value
2023-05-17T00:01:20.003Z,101633.59
2023-05-17T00:03:47.998Z,101625.38
2023-05-17T00:06:16.092Z,101627.09
2023-05-17T00:08:44.077Z,101626.66
2023-05-17T00:11:12.086Z,101628.81
2023-05-17T00:13:41.169Z,101636.06
2023-05-17T00:16:09.830Z,101633.84
2023-05-17T00:18:39.349Z,101632.78
2023-05-17T00:21:07.536Z,101633.50
2023-05-17T00:23:35.588Z,101625.34
2023-05-17T00:26:03.581Z,101629.28
2023-05-17T00:28:31.612Z,101640.03
2023-05-17T00:30:59.569Z,101634.28
2023-05-17T00:33:27.531Z,101633.50
2023-05-17T00:35:56.816Z,101632.59
2023-05-17T00:38:24.832Z,101632.22
2023-05-17T00:40:54.094Z,101637.72
2023-05-17T00:43:22.293Z,101636.22
2023-05-17T00:45:51.782Z,101640.03
2023-05-17T00:48:21.323Z,101637.16
2023-05-17T00:50:50.195Z,101642.00
2023-05-17T00:53:20.048Z,101642.78
2023-05-17T00:55:48.199Z,101637.25
2023-05-17T00:58:16.522Z,101642.09
2023-05-17T01:00:45.748Z,101634.88
2023-05-17T01:03:13.951Z,101633.56
2023-05-17T01:05:42.024Z,101635.84
2023-05-17T01:08:10.051Z,101631.31
2023-05-17T01:10:45.443Z,101630.34
2023-05-17T01:13:19.624Z,101633.97
2023-05-17T01:15:54.461Z,101630.50
2023-05-17T01:18:29.490Z,101629.47
2023-05-17T01:20:59.993Z,101635.25
2023-05-17T01:23:46.680Z,101648.91
2023-05-17T01:26:20.669Z,101652.72
2023-05-17T01:28:54.289Z,101644.50
2023-05-17T01:31:24.400Z,101645.75
2023-05-17T01:33:52.423Z,101653.50
2023-05-17T01:36:20.682Z,101656.16
2023-05-17T01:38:48.583Z,101652.53
2023-05-17T01:41:19.311Z,101656.06
2023-05-17T01:43:52.493Z,101655.78
2023-05-17T01:46:27.441Z,101659.88
2023-05-17T01:49:07.502Z,101668.75
2023-05-17T01:51:45.788Z,101662.97
2023-05-17T01:54:15.947Z,101660.13
2023-05-17T01:56:49.072Z,101665.16
2023-05-17T01:59:24.245Z,101677.56
2023-05-17T02:01:55.045Z,101675.59
2023-05-17T02:04:23.147Z,101676.44
2023-05-17T02:06:51.077Z,101673.75
2023-05-17T02:09:19.019Z,101665.47
2023-05-17T02:11:46.953Z,101664.19
2023-05-17T02:14:15.610Z,101668.50
2023-05-17T02:16:44.895Z,101664.97
2023-05-17T02:19:14.282Z,101669.00
2023-05-17T02:21:42.315Z,101672.81
2023-05-17T02:24:10.285Z,101671.47
2023-05-17T02:26:42.888Z,101662.88
2023-05-17T02:29:11.141Z,101654.47
2023-05-17T02:31:39.216Z,101661.16
2023-05-17T02:34:08.545Z,101658.28
2023-05-17T02:36:36.501Z,101653.41
2023-05-17T02:39:04.492Z,101651.09
2023-05-17T02:41:32.947Z,101653.66
2023-05-17T02:44:01.123Z,101655.78
2023-05-17T02:46:29.173Z,101651.97
2023-05-17T02:48:57.025Z,101642.88
2023-05-17T02:51:26.901Z,101651.00
2023-05-17T02:53:54.869Z,101649.88
2023-05-17T02:56:23.222Z,101657.72
2023-05-17T02:58:51.193Z,101645.44
2023-05-17T03:01:19.171Z,101652.28
2023-05-17T03:03:47.691Z,101664.97
2023-05-17T03:06:16.044Z,101671.09
2023-05-17T03:08:46.005Z,101664.75
2023-05-17T03:11:14.413Z,101671.97
2023-05-17T03:13:42.308Z,101675.38
2023-05-17T03:16:10.431Z,101676.13
2023-05-17T03:18:38.500Z,101678.44
2023-05-17T03:21:06.533Z,101673.63
2023-05-17T03:23:35.007Z,101677.66
2023-05-17T03:26:05.765Z,101676.38
2023-05-17T03:28:40.410Z,101680.81
2023-05-17T03:31:08.639Z,101691.53
2023-05-17T03:33:36.814Z,101679.38
2023-05-17T03:36:06.424Z,101691.63
2023-05-17T03:38:34.420Z,101686.69
2023-05-17T03:41:02.527Z,101700.13
2023-05-17T03:43:31.930Z,101691.03
2023-05-17T03:46:01.474Z,101686.09
2023-05-17T03:48:30.526Z,101701.59
2023-05-17T03:50:59.371Z,101702.34
2023-05-17T03:53:28.784Z,101705.38
2023-05-17T03:55:56.833Z,101702.22
2023-05-17T03:58:24.942Z,101713.50
2023-05-17T04:00:54.537Z,101719.34
2023-05-17T04:03:22.446Z,101731.94
2023-05-17T04:05:50.921Z,101724.00
2023-05-17T04:08:19.125Z,101729.19
2023-05-17T04:10:47.173Z,101735.84
2023-05-17T04:13:15.238Z,101737.78
2023-05-17T04:15:43.157Z,101734.34
2023-05-17T04:18:12.633Z,101734.34
2023-05-17T04:20:40.877Z,101721.91
2023-05-17T04:23:09.860Z,101736.53
2023-05-17T04:25:37.948Z,101744.47
2023-05-17T04:28:05.939Z,101733.00
2023-05-17T04:30:34.239Z,101732.06
2023-05-17T04:33:02.738Z,101737.78
2023-05-17T04:35:32.098Z,101750.88
2023-05-17T04:38:00.517Z,101743.78
2023-05-17T04:40:28.468Z,101753.06
2023-05-17T04:42:56.661Z,101758.63
2023-05-17T04:45:25.061Z,101762.03
2023-05-17T04:47:53.608Z,101763.00
2023-05-17T04:50:22.696Z,101763.41
2023-05-17T04:52:53.121Z,101773.94
2023-05-17T04:55:21.098Z,101769.13
2023-05-17T04:57:49.631Z,101778.88
2023-05-17T05:00:20.906Z,101786.47
2023-05-17T05:02:54.689Z,101783.78
2023-05-17T05:05:25.060Z,101776.28
2023-05-17T05:07:54.467Z,101793.38
2023-05-17T05:10:22.915Z,101795.69
2023-05-17T05:12:51.094Z,101812.69
2023-05-17T05:15:20.072Z,101796.28
2023-05-17T05:17:54.749Z,101809.69
2023-05-17T05:20:22.902Z,101813.81
2023-05-17T05:22:50.824Z,101823.06
2023-05-17T05:25:21.648Z,101827.03
2023-05-17T05:27:49.821Z,101817.13
2023-05-17T05:30:22.305Z,101820.44
2023-05-17T05:32:52.783Z,101820.97
2023-05-17T05:35:26.402Z,101813.38
2023-05-17T05:37:54.600Z,101817.22
2023-05-17T05:40:24.553Z,101822.38
2023-05-17T05:42:53.119Z,101829.53
2023-05-17T05:45:22.376Z,101832.09
2023-05-17T05:47:51.879Z,101848.94
2023-05-17T05:50:20.159Z,101846.63
2023-05-17T05:52:49.212Z,101834.53
2023-05-17T05:55:17.118Z,101854.47
2023-05-17T05:57:46.395Z,101856.91
2023-05-17T06:00:15.437Z,101853.91
2023-05-17T06:02:43.661Z,101842.13
2023-05-17T06:05:11.887Z,101847.00
2023-05-17T06:07:39.912Z,101848.09
2023-05-17T06:10:08.945Z,101854.09
2023-05-17T06:12:36.881Z,101854.03
2023-05-17T06:15:08.337Z,101854.47
2023-05-17T06:17:36.364Z,101878.66
2023-05-17T06:20:05.166Z,101876.78
2023-05-17T06:22:33.261Z,101877.03
2023-05-17T06:25:01.213Z,101872.28
2023-05-17T06:27:29.157Z,101864.44
2023-05-17T06:29:57.121Z,101874.50
2023-05-17T06:32:26.515Z,101874.44
2023-05-17T06:34:56.621Z,101880.16
2023-05-17T06:37:24.758Z,101886.94
2023-05-17T06:40:00.019Z,101881.47
2023-05-17T06:42:32.095Z,101887.31
2023-05-17T06:45:00.498Z,101885.56
2023-05-17T06:47:30.227Z,101881.81
2023-05-17T06:49:59.449Z,101877.81
2023-05-17T06:52:27.381Z,101875.75
2023-05-17T06:54:55.456Z,101880.41
2023-05-17T06:57:24.385Z,101877.69
2023-05-17T06:59:52.867Z,101888.47
2023-05-17T07:02:20.907Z,101875.94
2023-05-17T07:04:50.216Z,101870.59
2023-05-17T07:07:18.201Z,101874.25
2023-05-17T07:09:46.130Z,101872.72
2023-05-17T07:12:14.102Z,101874.41
2023-05-17T07:14:42.059Z,101883.22
2023-05-17T07:17:11.963Z,101885.38
2023-05-17T07:19:40.039Z,101883.03
2023-05-17T07:22:09.940Z,101888.44
2023-05-17T07:24:38.134Z,101892.50
2023-05-17T07:27:06.680Z,101892.50
2023-05-17T07:29:34.585Z,101892.94
2023-05-17T07:32:02.535Z,101903.88
2023-05-17T07:34:31.663Z,101896.97
2023-05-17T07:36:59.903Z,101899.13
2023-05-17T07:39:29.187Z,101912.03
2023-05-17T07:41:57.101Z,101908.50
2023-05-17T07:44:27.508Z,101913.66
2023-05-17T07:46:55.434Z,101914.44
2023-05-17T07:49:24.580Z,101923.75
2023-05-17T07:51:52.944Z,101925.50
2023-05-17T07:54:25.412Z,101921.09
2023-05-17T07:56:55.339Z,101931.16
2023-05-17T07:59:23.519Z,101927.72
2023-05-17T08:01:52.206Z,101932.34
2023-05-17T08:04:20.261Z,101935.28
2023-05-17T08:06:48.507Z,101950.13
2023-05-17T08:09:16.842Z,101960.41
2023-05-17T08:11:46.028Z,101950.13
2023-05-17T08:14:16.885Z,101960.00
2023-05-17T08:16:46.655Z,101952.22
2023-05-17T08:19:16.441Z,101953.31
2023-05-17T08:21:46.269Z,101949.66
2023-05-17T08:24:14.318Z,101948.28
2023-05-17T08:26:42.252Z,101950.63
2023-05-17T08:29:10.148Z,101956.88
2023-05-17T08:31:39.511Z,101949.63
2023-05-17T08:34:10.092Z,101955.69
2023-05-17T08:36:38.165Z,101963.66
2023-05-17T08:39:08.417Z,101962.44
2023-05-17T08:41:36.680Z,101958.72
2023-05-17T08:44:06.480Z,101961.19
2023-05-17T08:46:37.062Z,101969.00
2023-05-17T08:49:07.936Z,101974.88
2023-05-17T08:51:39.481Z,101980.56
2023-05-17T08:54:08.441Z,101972.41
2023-05-17T08:56:40.145Z,101976.47
2023-05-17T08:59:10.678Z,101977.03
2023-05-17T09:01:41.406Z,101968.97
2023-05-17T09:04:11.741Z,101970.34
2023-05-17T09:06:39.797Z,101958.53
2023-05-17T09:09:08.520Z,101975.59
2023-05-17T09:11:36.457Z,101965.03
2023-05-17T09:14:05.910Z,101954.31
2023-05-17T09:16:35.285Z,101942.59
2023-05-17T09:19:05.306Z,101940.66
2023-05-17T09:21:35.027Z,101942.56
2023-05-17T09:24:07.134Z,101939.00
2023-05-17T09:26:39.790Z,101935.84
2023-05-17T09:29:10.398Z,101940.94
2023-05-17T09:31:38.681Z,101937.00
2023-05-17T09:34:08.288Z,101942.94
2023-05-17T09:36:39.304Z,101945.34
2023-05-17T09:39:12.170Z,101954.75
2023-05-17T09:41:45.538Z,101939.22
2023-05-17T09:44:15.305Z,101937.56
2023-05-17T09:46:45.369Z,101944.84
2023-05-17T09:49:14.146Z,101946.16
2023-05-17T09:51:44.628Z,101940.41
2023-05-17T09:54:12.661Z,101939.28
2023-05-17T09:56:41.063Z,101946.16
2023-05-17T09:59:13.951Z,101955.97
2023-05-17T10:01:43.296Z,101940.69
2023-05-17T10:04:12.221Z,101942.47
2023-05-17T10:09:15.707Z,101942.09
2023-05-17T10:11:47.588Z,101938.81
2023-05-17T10:14:22.593Z,101938.53
2023-05-17T10:16:52.209Z,101944.00
2023-05-17T10:19:21.943Z,101958.94
2023-05-17T10:21:51.896Z,101939.66
2023-05-17T10:24:22.057Z,101948.69
2023-05-17T10:26:51.159Z,101939.03
2023-05-17T10:29:20.947Z,101943.69
2023-05-17T10:31:51.965Z,101934.44
2023-05-17T10:34:20.921Z,101939.91
2023-05-17T10:36:50.899Z,101942.44
2023-05-17T10:39:19.042Z,101945.25
2023-05-17T10:41:53.017Z,101944.03
2023-05-17T10:44:21.162Z,101951.22
2023-05-17T10:46:53.722Z,101962.50
2023-05-17T10:49:24.527Z,101961.56
2023-05-17T10:51:52.961Z,101968.38
2023-05-17T10:54:20.991Z,101974.66
2023-05-17T10:56:51.449Z,101955.53
2023-05-17T10:59:22.742Z,101966.00
2023-05-17T11:01:52.993Z,101959.38
2023-05-17T11:04:26.170Z,101956.19
2023-05-17T11:06:56.076Z,101977.72
2023-05-17T11:09:25.126Z,101960.38
2023-05-17T11:12:08.420Z,101967.06
2023-05-17T11:14:53.333Z,101962.94
2023-05-17T11:17:23.347Z,101954.09
2023-05-17T11:19:58.046Z,101967.22
2023-05-17T11:22:26.818Z,101973.44
2023-05-17T11:24:57.999Z,101964.81
2023-05-17T11:27:28.878Z,101978.66
2023-05-17T11:29:57.515Z,101973.84
2023-05-17T11:32:29.108Z,101965.75
2023-05-17T11:35:01.096Z,101966.63
2023-05-17T11:37:31.166Z,101964.59
2023-05-17T11:40:07.254Z,101945.25
2023-05-17T11:42:37.303Z,101965.50
2023-05-17T11:45:06.473Z,101955.06
2023-05-17T11:47:34.580Z,101947.72
2023-05-17T11:50:03.510Z,101955.19
2023-05-17T11:52:32.447Z,101960.84
2023-05-17T11:55:01.436Z,101981.34
2023-05-17T11:57:31.734Z,101956.34
2023-05-17T12:00:02.029Z,101980.81
2023-05-17T12:02:31.380Z,101966.72
2023-05-17T12:05:00.160Z,101958.75
2023-05-17T12:07:29.682Z,101963.34
2023-05-17T12:09:57.604Z,101975.09
2023-05-17T12:12:27.151Z,101967.81
2023-05-17T12:14:55.090Z,101967.84
2023-05-17T12:17:32.396Z,101968.19
2023-05-17T12:20:08.375Z,101975.28
2023-05-17T12:22:52.176Z,102000.31
2023-05-17T12:25:20.870Z,101973.63
2023-05-17T12:27:50.371Z,101965.25
2023-05-17T12:30:18.947Z,101963.16
2023-05-17T12:32:48.710Z,101961.53
2023-05-17T12:35:17.080Z,101959.06
2023-05-17T12:37:45.701Z,101961.06
2023-05-17T12:40:14.267Z,101947.25
2023-05-17T12:42:43.852Z,101952.38
2023-05-17T12:45:13.687Z,101966.28
2023-05-17T12:47:41.703Z,101968.06
2023-05-17T12:50:12.614Z,101962.72
2023-05-17T12:52:42.194Z,101966.28
2023-05-17T12:55:14.405Z,101970.69
2023-05-17T12:57:50.313Z,101960.09
2023-05-17T13:00:19.502Z,101960.56
2023-05-17T13:02:47.735Z,101969.94
2023-05-17T13:05:21.499Z,101967.22
2023-05-17T13:07:50.005Z,101966.75
2023-05-17T13:10:22.746Z,101969.19
2023-05-17T13:12:58.458Z,101974.00
2023-05-17T13:15:30.797Z,101956.13
2023-05-17T13:17:59.956Z,101952.88
2023-05-17T13:20:29.662Z,101968.31
2023-05-17T13:22:57.834Z,101963.22
2023-05-17T13:25:25.880Z,101970.53
2023-05-17T13:27:55.423Z,101963.25
2023-05-17T13:30:23.555Z,101961.97
2023-05-17T13:32:51.932Z,101963.00
2023-05-17T13:35:19.907Z,101969.63
2023-05-17T13:37:49.212Z,101969.34
2023-05-17T13:40:17.269Z,101976.91
2023-05-17T13:42:45.128Z,101974.38
2023-05-17T13:45:13.759Z,101972.81
2023-05-17T13:47:42.079Z,101977.22
2023-05-17T13:50:12.166Z,101974.28
2023-05-17T13:52:40.132Z,101983.38
2023-05-17T13:55:10.139Z,101972.34
2023-05-17T13:57:38.008Z,101968.88
2023-05-17T14:00:07.368Z,101972.47
2023-05-17T14:02:35.385Z,101974.09
2023-05-17T14:05:04.764Z,101970.50
2023-05-17T14:07:32.672Z,101977.47
2023-05-17T14:10:00.901Z,101989.53
2023-05-17T14:12:30.239Z,101985.34
2023-05-17T14:14:58.214Z,101980.47
2023-05-17T14:17:26.163Z,101982.66
2023-05-17T14:19:54.095Z,101986.81
2023-05-17T14:22:22.501Z,101989.53
2023-05-17T14:24:50.414Z,101991.06
2023-05-17T14:27:18.366Z,101981.47
2023-05-17T14:29:47.604Z,101990.06
2023-05-17T14:32:15.612Z,101992.66
2023-05-17T14:34:43.518Z,101998.94
2023-05-17T14:37:11.883Z,101995.81
2023-05-17T14:39:39.756Z,101991.50
2023-05-17T14:42:07.801Z,102003.47
2023-05-17T14:44:38.772Z,102004.78
2023-05-17T14:47:09.641Z,102003.94
2023-05-17T14:49:37.741Z,102006.22
2023-05-17T14:52:06.124Z,102009.06
2023-05-17T14:54:35.565Z,102020.19
2023-05-17T14:57:03.528Z,102018.72
2023-05-17T14:59:31.515Z,102027.47
2023-05-17T15:02:00.371Z,102019.75
2023-05-17T15:04:29.695Z,102027.47
2023-05-17T15:06:58.933Z,102030.06
2023-05-17T15:09:26.845Z,102038.22
2023-05-17T15:11:54.878Z,102034.53
2023-05-17T15:14:24.394Z,102041.84
2023-05-17T15:16:54.023Z,102020.94
2023-05-17T15:19:22.278Z,102025.97
2023-05-17T15:21:51.894Z,102031.94
2023-05-17T15:24:19.812Z,102029.59
2023-05-17T15:26:47.868Z,102026.75
2023-05-17T15:29:16.039Z,102031.63
2023-05-17T15:31:44.043Z,102026.34
2023-05-17T15:34:12.092Z,102036.91
2023-05-17T15:36:40.385Z,102035.84
2023-05-17T15:39:10.500Z,102029.16
2023-05-17T15:41:39.775Z,102047.03
2023-05-17T15:44:08.992Z,102049.72
2023-05-17T15:46:36.937Z,102052.28
2023-05-17T15:49:04.961Z,102044.88
2023-05-17T15:51:32.878Z,102039.19
2023-05-17T15:54:00.807Z,102039.75
2023-05-17T15:56:30.237Z,102041.03
2023-05-17T15:58:58.712Z,102037.03
2023-05-17T16:01:27.737Z,102040.03
2023-05-17T16:03:55.913Z,102036.03
2023-05-17T16:06:23.787Z,102038.00
2023-05-17T16:08:51.688Z,102046.00
2023-05-17T16:11:19.571Z,102040.84
2023-05-17T16:13:48.920Z,102047.13
2023-05-17T16:16:16.859Z,102047.13
2023-05-17T16:18:44.967Z,102045.94
2023-05-17T16:21:13.560Z,102053.66
2023-05-17T16:23:41.544Z,102054.94
2023-05-17T16:26:09.864Z,102054.16
2023-05-17T16:28:37.876Z,102064.94
2023-05-17T16:31:07.315Z,102064.34
2023-05-17T16:33:35.630Z,102072.19
2023-05-17T16:36:04.453Z,102079.28
2023-05-17T16:38:32.362Z,102068.09
2023-05-17T16:41:03.072Z,102072.63
2023-05-17T16:43:31.210Z,102074.41
2023-05-17T16:45:59.198Z,102086.84
2023-05-17T16:48:28.709Z,102068.38
2023-05-17T16:50:58.278Z,102076.38
2023-05-17T16:53:28.128Z,102078.03
2023-05-17T16:55:56.180Z,102086.59
2023-05-17T16:58:24.063Z,102085.69
2023-05-17T17:00:53.001Z,102077.03
2023-05-17T17:03:21.047Z,102070.91
2023-05-17T17:05:50.386Z,102087.03
2023-05-17T17:08:18.339Z,102081.91
2023-05-17T17:10:46.264Z,102095.84
2023-05-17T17:13:15.032Z,102096.22
2023-05-17T17:15:42.998Z,102096.13
2023-05-17T17:18:11.381Z,102095.72
2023-05-17T17:20:39.321Z,102082.00
2023-05-17T17:23:08.626Z,102086.03
2023-05-17T17:25:36.525Z,102085.22
2023-05-17T17:28:04.510Z,102089.81
2023-05-17T17:30:33.138Z,102091.69
2023-05-17T17:33:01.428Z,102088.59
2023-05-17T17:35:29.396Z,102094.00
2023-05-17T17:37:57.330Z,102095.13
2023-05-17T17:40:27.509Z,102104.16
2023-05-17T17:42:55.490Z,102102.06
2023-05-17T17:45:23.700Z,102109.09
2023-05-17T17:47:51.844Z,102105.69
2023-05-17T17:50:19.913Z,102108.75
2023-05-17T17:52:48.065Z,102113.19
2023-05-17T17:55:16.073Z,102105.88
2023-05-17T17:57:45.675Z,102117.75
2023-05-17T18:00:16.044Z,102120.38
2023-05-17T18:02:44.135Z,102121.19
2023-05-17T18:05:12.600Z,102120.84
2023-05-17T18:07:40.887Z,102120.25
2023-05-17T18:10:09.348Z,102129.69
2023-05-17T18:12:37.317Z,102126.41
2023-05-17T18:15:07.558Z,102128.34
2023-05-17T18:17:35.562Z,102132.53
2023-05-17T18:20:03.549Z,102142.31
2023-05-17T18:22:31.400Z,102140.63
2023-05-17T18:24:59.534Z,102146.03
2023-05-17T18:27:27.507Z,102147.47
2023-05-17T18:29:55.449Z,102161.34
2023-05-17T18:32:24.850Z,102166.59
2023-05-17T18:34:53.152Z,102160.97
2023-05-17T18:37:21.029Z,102167.34
2023-05-17T18:39:48.958Z,102171.94
2023-05-17T18:42:16.901Z,102173.38
2023-05-17T18:44:44.839Z,102175.03
2023-05-17T18:47:12.779Z,102177.56
2023-05-17T18:49:46.440Z,102186.97
2023-05-17T18:52:14.567Z,102187.41
2023-05-17T18:54:42.491Z,102191.97
2023-05-17T18:57:11.920Z,102198.88
2023-05-17T18:59:39.939Z,102190.41
2023-05-17T19:02:08.948Z,102202.50
2023-05-17T19:04:37.416Z,102208.53
2023-05-17T19:07:06.950Z,102213.47
2023-05-17T19:09:34.864Z,102219.16
2023-05-17T19:12:02.789Z,102225.53
2023-05-17T19:14:32.053Z,102221.13
2023-05-17T19:17:00.233Z,102238.19
2023-05-17T19:19:28.362Z,102245.22
2023-05-17T19:21:56.466Z,102235.34
2023-05-17T19:24:26.054Z,102236.50
2023-05-17T19:26:53.983Z,102249.38
2023-05-17T19:29:22.320Z,102248.97
2023-05-17T19:31:50.511Z,102254.75
2023-05-17T19:34:18.629Z,102265.44
2023-05-17T19:36:46.560Z,102263.75
2023-05-17T19:39:14.969Z,102268.69
2023-05-17T19:41:44.302Z,102268.19
2023-05-17T19:44:12.680Z,102272.91
2023-05-17T19:46:40.653Z,102265.81
2023-05-17T19:49:08.765Z,102267.31
2023-05-17T19:51:36.827Z,102280.88
2023-05-17T19:54:05.109Z,102287.75
2023-05-17T19:56:33.029Z,102284.94
2023-05-17T19:59:03.792Z,102287.00
2023-05-17T20:01:31.832Z,102297.78
2023-05-17T20:03:59.966Z,102287.03
2023-05-17T20:06:28.052Z,102299.50
2023-05-17T20:08:56.098Z,102299.81
2023-05-17T20:11:23.999Z,102310.59
2023-05-17T20:13:51.979Z,102315.47
2023-05-17T20:16:21.376Z,102307.78
2023-05-17T20:18:49.513Z,102304.13
2023-05-17T20:21:19.594Z,102315.34
2023-05-17T20:23:47.933Z,102312.66
2023-05-17T20:26:19.021Z,102313.91
2023-05-17T20:28:47.073Z,102322.28
2023-05-17T20:31:14.957Z,102323.34
2023-05-17T20:33:44.546Z,102322.78
2023-05-17T20:36:14.489Z,102333.03
2023-05-17T20:38:43.504Z,102326.28
2023-05-17T20:41:11.692Z,102327.31
2023-05-17T20:43:39.721Z,102334.28
2023-05-17T20:46:09.405Z,102328.31
2023-05-17T20:48:38.894Z,102340.22
2023-05-17T20:51:08.258Z,102338.25
2023-05-17T20:53:36.259Z,102341.22
2023-05-17T20:56:04.259Z,102338.31
2023-05-17T20:58:32.225Z,102346.97
2023-05-17T21:01:01.186Z,102343.41
2023-05-17T21:03:33.878Z,102343.09
2023-05-17T21:06:05.063Z,102346.31
2023-05-17T21:08:34.927Z,102337.78
2023-05-17T21:11:02.846Z,102342.19
2023-05-17T21:13:31.061Z,102348.72
2023-05-17T21:15:59.107Z,102348.88
2023-05-17T21:18:27.157Z,102346.81
2023-05-17T21:20:55.215Z,102347.72
2023-05-17T21:23:23.261Z,102344.25
2023-05-17T21:25:52.926Z,102351.25
2023-05-17T21:28:20.980Z,102346.56
2023-05-17T21:30:49.246Z,102359.59
2023-05-17T21:33:17.312Z,102354.50
2023-05-17T21:35:45.418Z,102355.34
2023-05-17T21:38:13.795Z,102355.63
2023-05-17T21:40:42.126Z,102354.25
2023-05-17T21:43:11.764Z,102354.41
2023-05-17T21:45:39.977Z,102353.38
2023-05-17T21:48:08.167Z,102360.31
2023-05-17T21:50:36.208Z,102358.00
2023-05-17T21:53:04.174Z,102364.16
2023-05-17T21:55:36.977Z,102348.31
2023-05-17T21:58:16.397Z,102355.91
2023-05-17T22:00:44.406Z,102352.06
2023-05-17T22:03:12.582Z,102355.50
2023-05-17T22:05:40.889Z,102356.09
2023-05-17T22:08:08.832Z,102365.31
2023-05-17T22:10:37.102Z,102367.03
2023-05-17T22:13:06.107Z,102356.75
2023-05-17T22:15:36.247Z,102363.97
2023-05-17T22:18:05.167Z,102364.94
2023-05-17T22:20:33.540Z,102365.22
2023-05-17T22:23:01.587Z,102356.69
2023-05-17T22:25:29.693Z,102363.78
2023-05-17T22:27:57.602Z,102366.66
2023-05-17T22:30:25.596Z,102364.94
2023-05-17T22:32:57.220Z,102365.53
2023-05-17T22:35:25.672Z,102365.31
2023-05-17T22:37:53.751Z,102373.09
2023-05-17T22:40:22.303Z,102365.31
2023-05-17T22:42:51.843Z,102377.38
2023-05-17T22:45:19.806Z,102385.06
2023-05-17T22:47:47.843Z,102382.94
2023-05-17T22:50:19.106Z,102385.22
2023-05-17T22:52:47.215Z,102385.16
2023-05-17T22:55:15.136Z,102396.56
2023-05-17T22:57:43.037Z,102390.13
2023-05-17T23:00:12.026Z,102390.81
2023-05-17T23:02:40.016Z,102396.16
2023-05-17T23:05:08.514Z,102397.59
2023-05-17T23:07:38.340Z,102402.16
2023-05-17T23:10:07.400Z,102395.69
2023-05-17T23:12:36.512Z,102394.75
2023-05-17T23:15:05.158Z,102395.31
2023-05-17T23:17:33.722Z,102403.53
2023-05-17T23:20:07.071Z,102406.34
2023-05-17T23:22:35.080Z,102406.88
2023-05-17T23:25:05.939Z,102400.06
2023-05-17T23:27:35.299Z,102394.97
2023-05-17T23:30:04.513Z,102398.03
2023-05-17T23:32:33.973Z,102398.53
2023-05-17T23:35:04.115Z,102398.53
2023-05-17T23:37:32.331Z,102406.88
2023-05-17T23:40:01.100Z,102408.38
2023-05-17T23:42:30.480Z,102404.13
2023-05-17T23:44:58.735Z,102404.31
2023-05-17T23:47:28.071Z,102414.47
2023-05-17T23:49:56.399Z,102417.63
2023-05-17T23:52:24.440Z,102419.84
2023-05-17T23:54:57.222Z,102421.09
2023-05-17T23:57:25.749Z,102419.44
2023-05-17T23:59:55.072Z,102416.19
